Time;durP1;ratioP1;P1;durP2;ratioP2;P2;SDS_P1;SDS_P2;PMS_P1;PMS_P2;Temp;Humidity;BMP_temperature;BMP_pressure;BME280_temperature;BME280_humidity;BME280_pressure;Samples;Min_cycle;Max_cycle;Signal;HPM_P1;HPM_P2
2022/04/23 00:19:19;;;;;;;15.43;13.83;;;11.30;99.90;;;;;;4767120;30;20452;-84
2022/04/23 00:22:16;;;;;;;13.83;12.53;;;11.30;99.90;;;;;;4860263;29;20504;-85
2022/04/23 00:25:42;;;;;;;14.57;13.20;;;11.20;99.90;;;;;;5041088;28;20495;-86
2022/04/23 00:53:58;;;;;;;14.13;12.70;;;10.90;99.90;;;;;;4927349;29;20460;-85
2022/04/23 01:26:09;;;;;;;16.43;14.73;;;10.30;99.90;;;;;;5019795;28;20476;-85
2022/04/23 01:29:25;;;;;;;15.57;13.10;;;10.30;99.90;;;;;;4939896;29;20462;-85
2022/04/23 01:43:18;;;;;;;;;;;;;;;;;;;;;
2022/04/23 01:53:39;;;;;;;18.47;16.03;;;10.10;99.90;;;;;;4830316;29;20472;-85
2022/04/23 02:20:36;;;;;;;18.40;16.13;;;9.70;99.90;;;;;;4870685;29;20850;-85
2022/04/23 02:23:09;;;;;;;17.47;15.67;;;9.60;99.90;;;;;;4999632;28;20456;-85
2022/04/23 02:26:13;;;;;;;18.17;16.13;;;9.60;99.90;;;;;;4999220;28;20456;-84
2022/04/23 02:28:54;;;;;;;18.60;16.70;;;9.60;99.90;;;;;;4999094;28;20447;-85
2022/04/23 02:34:59;;;;;;;20.30;18.17;;;9.50;99.90;;;;;;4976717;28;20491;-85
2022/04/23 02:37:55;;;;;;;18.07;16.17;;;9.50;99.90;;;;;;4979915;28;20884;-85
2022/04/23 02:41:08;;;;;;;;;;;;;;;;;;;;;
2022/04/23 02:47:32;;;;;;;;;;;;;;;;;;;;;
2022/04/23 02:57:59;;;;;;;;;;;;;;;;;;;;;
2022/04/23 03:07:10;;;;;;;21.33;18.70;;;9.20;99.90;;;;;;4746011;29;20225;-84
2022/04/23 03:09:44;;;;;;;20.10;18.00;;;9.20;99.90;;;;;;4892393;28;20758;-85
2022/04/23 03:12:17;;;;;;;20.90;17.90;;;9.20;99.90;;;;;;4988084;28;20216;-85
2022/04/23 03:15:00;;;;;;;20.90;18.80;;;9.20;99.90;;;;;;5002655;28;20429;-85
2022/04/23 03:17:59;;;;;;;22.58;19.45;;;9.20;99.90;;;;;;5009954;28;20478;-84
2022/04/23 03:24:02;;;;;;;20.73;18.58;;;9.20;99.90;;;;;;4926043;29;20227;-86
2022/04/23 03:26:41;;;;;;;21.13;18.98;;;9.10;99.90;;;;;;4998961;28;20285;-84
2022/04/23 03:29:08;;;;;;;21.13;18.80;;;9.10;99.90;;;;;;5008905;28;20232;-85
2022/04/23 03:31:40;;;;;;;21.88;19.75;;;9.00;99.90;;;;;;5002149;28;20228;-85
2022/04/23 03:34:09;;;;;;;22.38;17.80;;;9.00;99.90;;;;;;5002773;28;20220;-85
2022/04/23 03:36:49;;;;;;;22.25;19.85;;;9.10;99.90;;;;;;5001560;28;20249;-84
2022/04/23 03:39:16;;;;;;;19.88;17.65;;;9.10;99.90;;;;;;5001986;28;20208;-85
2022/04/23 03:41:52;;;;;;;22.63;20.38;;;9.00;99.90;;;;;;5001530;28;20307;-84
2022/04/23 03:44:43;;;;;;;22.42;18.88;;;9.10;99.90;;;;;;5002893;28;20623;-85
2022/04/23 03:47:10;;;;;;;20.00;17.63;;;9.00;99.90;;;;;;4982898;28;20209;-85
2022/04/23 03:49:50;;;;;;;20.33;18.27;;;9.00;99.90;;;;;;4982767;28;20536;-85
2022/04/23 03:56:17;;;;;;;21.45;19.02;;;8.90;99.90;;;;;;4985158;28;20231;-85
2022/04/23 03:59:21;;;;;;;21.10;18.67;;;8.90;99.90;;;;;;4997940;28;20225;-85
2022/04/23 04:02:27;;;;;;;21.05;17.58;;;8.90;99.90;;;;;;5002057;28;20753;-85
2022/04/23 07:40:40;;;;;;;10.23;9.23;;;12.80;99.90;;;;;;4985933;28;20468;-82
2022/04/23 07:43:09;;;;;;;9.50;8.70;;;12.80;99.90;;;;;;4977656;28;20929;-81
2022/04/23 07:45:36;;;;;;;9.87;8.60;;;12.90;99.90;;;;;;4977104;28;20506;-81
2022/04/23 07:48:02;;;;;;;10.37;9.47;;;13.00;99.90;;;;;;4992189;28;20451;-82
2022/04/23 07:50:29;;;;;;;10.17;9.27;;;13.10;99.90;;;;;;4996175;28;20450;-82
2022/04/23 07:52:56;;;;;;;10.33;9.30;;;13.20;99.90;;;;;;4984613;28;20632;-82
2022/04/23 07:55:22;;;;;;;9.40;8.60;;;13.30;99.90;;;;;;4995835;28;20965;-81
2022/04/23 07:57:50;;;;;;;11.00;10.00;;;13.30;99.90;;;;;;4987528;28;20451;-81
2022/04/23 08:26:05;;;;;;;10.60;9.70;;;13.40;99.50;;;;;;5581201;22;20498;-80
2022/04/23 08:31:30;;;;;;;11.23;10.03;;;13.60;99.20;;;;;;4959315;29;21049;-80
2022/04/23 08:34:00;;;;;;;9.30;8.50;;;13.80;99.10;;;;;;4959142;29;20541;-80
2022/04/23 08:36:35;;;;;;;9.80;8.90;;;14.10;99.00;;;;;;4963513;28;20444;-80
2022/04/23 08:39:04;;;;;;;9.67;8.77;;;14.30;98.20;;;;;;4983893;28;20444;-81
2022/04/23 08:41:34;;;;;;;10.73;9.83;;;14.50;97.50;;;;;;4980971;28;20479;-81
2022/04/23 08:44:05;;;;;;;13.83;12.37;;;14.70;97.00;;;;;;4981502;28;20517;-81
2022/04/23 08:46:33;;;;;;;14.30;12.97;;;14.80;96.60;;;;;;4981267;28;20477;-83
2022/04/23 08:49:13;;;;;;;12.83;11.67;;;14.80;96.20;;;;;;4981391;28;20484;-82
2022/04/23 08:51:41;;;;;;;10.57;9.67;;;14.80;96.20;;;;;;4980336;28;20498;-80
2022/04/23 08:54:10;;;;;;;9.93;9.03;;;15.00;96.20;;;;;;4978978;28;20500;-80
2022/04/23 08:56:41;;;;;;;9.80;8.90;;;15.10;95.80;;;;;;4980160;28;20797;-81
2022/04/23 08:59:08;;;;;;;10.17;9.30;;;14.90;95.60;;;;;;4980834;28;20574;-81
2022/04/23 09:01:36;;;;;;;11.30;10.27;;;15.00;95.70;;;;;;4981042;28;20476;-82
2022/04/23 09:04:04;;;;;;;10.27;9.33;;;15.00;95.60;;;;;;4981494;28;20455;-82
2022/04/23 09:06:39;;;;;;;9.90;9.10;;;15.00;95.30;;;;;;4980746;28;20459;-82
2022/04/23 09:09:07;;;;;;;10.53;8.73;;;15.00;95.20;;;;;;4979216;28;20489;-81
2022/04/23 09:11:36;;;;;;;10.20;9.30;;;15.10;95.40;;;;;;4979216;28;20468;-81
2022/04/23 09:14:04;;;;;;;8.90;8.10;;;15.00;95.10;;;;;;4978808;28;20572;-82
2022/04/23 09:25:04;;;;;;;10.20;9.30;;;15.10;95.00;;;;;;4980232;28;20442;-80
2022/04/23 09:27:31;;;;;;;11.43;10.33;;;15.20;94.90;;;;;;4981046;28;20451;-81
2022/04/23 09:30:00;;;;;;;9.60;8.80;;;15.20;94.80;;;;;;4979474;28;20484;-80
2022/04/23 09:32:28;;;;;;;9.50;8.60;;;15.20;94.60;;;;;;4979699;28;20472;-81
2022/04/23 09:35:09;;;;;;;11.43;8.57;;;15.30;94.60;;;;;;4979729;28;20831;-81
2022/04/23 09:40:22;;;;;;;10.77;9.60;;;15.20;94.20;;;;;;4979799;28;20868;-81
2022/04/23 09:42:56;;;;;;;9.93;9.03;;;15.20;94.00;;;;;;4979984;28;20492;-80
2022/04/23 09:45:26;;;;;;;9.80;8.80;;;15.10;94.30;;;;;;4979611;28;20482;-80
2022/04/23 09:47:53;;;;;;;10.33;9.30;;;15.00;94.30;;;;;;4979563;28;20460;-80
2022/04/23 09:50:20;;;;;;;10.87;9.80;;;14.90;94.90;;;;;;4978557;28;20453;-80
2022/04/23 09:52:46;;;;;;;9.90;8.87;;;14.90;94.90;;;;;;4978631;28;20441;-80
2022/04/23 09:55:14;;;;;;;10.27;9.17;;;15.00;95.10;;;;;;4980292;28;20456;-81
2022/04/23 09:57:42;;;;;;;11.57;8.80;;;15.20;95.00;;;;;;4979100;28;20503;-80
2022/04/23 10:00:11;;;;;;;9.47;8.43;;;15.30;94.50;;;;;;4977795;28;20485;-81
2022/04/23 10:02:42;;;;;;;9.33;8.40;;;15.50;94.40;;;;;;4985159;28;20540;-80
2022/04/23 10:05:11;;;;;;;9.13;8.20;;;15.50;93.80;;;;;;4992921;28;20475;-81
2022/04/23 10:07:41;;;;;;;8.83;7.40;;;15.60;93.90;;;;;;4981447;28;20472;-80
2022/04/23 10:10:12;;;;;;;7.60;7.00;;;15.80;93.90;;;;;;4979361;28;20493;-81
2022/04/23 10:12:44;;;;;;;8.10;7.50;;;16.10;93.90;;;;;;4979395;28;20552;-81
2022/04/23 10:15:11;;;;;;;7.40;6.70;;;16.30;92.60;;;;;;4979673;28;20455;-80
2022/04/23 10:17:41;;;;;;;8.17;7.43;;;16.50;92.70;;;;;;4978491;28;20464;-82
2022/04/23 10:20:11;;;;;;;8.00;7.20;;;16.60;92.20;;;;;;4978925;28;20462;-81
2022/04/23 10:22:51;;;;;;;9.03;8.13;;;16.80;92.10;;;;;;4979787;28;20499;-80
2022/04/23 10:25:28;;;;;;;8.10;7.30;;;16.90;92.00;;;;;;4977659;28;20501;-81
2022/04/23 10:27:57;;;;;;;9.70;8.80;;;17.10;91.50;;;;;;4979324;28;20830;-81
2022/04/23 10:30:26;;;;;;;8.13;6.73;;;17.00;91.10;;;;;;4979470;28;20502;-80
2022/04/23 10:32:54;;;;;;;7.10;6.50;;;17.00;91.10;;;;;;4979533;28;20881;-81
2022/04/23 10:35:33;;;;;;;8.33;7.63;;;16.90;90.90;;;;;;4979740;28;20449;-80
2022/04/23 10:38:19;;;;;;;8.63;7.80;;;17.10;91.20;;;;;;4979835;28;20485;-80
2022/04/23 10:40:47;;;;;;;8.67;7.87;;;17.00;90.60;;;;;;4958825;28;21023;-80
2022/04/23 10:43:19;;;;;;;8.53;7.83;;;17.10;90.90;;;;;;4969309;28;20445;-79
2022/04/23 10:45:48;;;;;;;9.30;8.47;;;17.30;90.60;;;;;;4979813;28;20489;-80
2022/04/23 10:48:26;;;;;;;10.10;9.20;;;17.30;90.60;;;;;;4979231;28;20509;-80
2022/04/23 10:51:18;;;;;;;9.33;8.47;;;17.20;90.00;;;;;;4978212;28;20486;-80
2022/04/23 10:53:59;;;;;;;9.73;8.73;;;17.10;90.20;;;;;;4972407;28;20454;-86
2022/04/23 10:56:40;;;;;;;10.23;9.17;;;17.10;90.50;;;;;;4972786;28;20480;-83
2022/04/23 10:59:43;;;;;;;10.07;9.17;;;17.10;90.60;;;;;;4981766;28;20808;-82
2022/04/23 11:02:14;;;;;;;11.50;10.20;;;17.00;90.60;;;;;;4966461;28;20470;-82
2022/04/23 11:13:26;;;;;;;11.03;10.00;;;16.90;90.80;;;;;;4976833;28;20434;-83
2022/04/23 11:16:13;;;;;;;9.97;8.97;;;17.00;90.40;;;;;;4977800;28;20517;-82
2022/04/23 11:18:41;;;;;;;11.23;10.10;;;17.00;90.30;;;;;;4976272;28;20457;-84
2022/04/23 11:21:14;;;;;;;10.20;9.30;;;17.10;90.50;;;;;;4977496;28;20524;-83
2022/04/23 11:23:45;;;;;;;11.10;10.00;;;17.00;90.00;;;;;;4978384;28;20458;-83
2022/04/23 11:26:12;;;;;;;10.13;9.23;;;17.00;90.30;;;;;;4978161;28;20465;-82
2022/04/23 11:28:40;;;;;;;9.50;8.70;;;17.10;90.20;;;;;;4983443;28;20452;-81
2022/04/23 11:31:14;;;;;;;10.40;9.40;;;17.30;89.80;;;;;;4984721;28;20519;-82
2022/04/23 11:33:54;;;;;;;11.20;10.13;;;17.30;89.70;;;;;;4980762;28;20449;-82
2022/04/23 11:36:27;;;;;;;10.07;8.70;;;17.50;90.00;;;;;;4981013;28;20451;-82
2022/04/23 11:38:54;;;;;;;10.90;9.90;;;17.60;89.70;;;;;;4980539;28;20494;-81
2022/04/23 11:41:28;;;;;;;9.80;9.00;;;17.90;90.00;;;;;;4980481;28;20528;-82
2022/04/23 11:43:55;;;;;;;11.57;8.87;;;18.20;87.90;;;;;;4980647;28;20457;-82
2022/04/23 11:46:22;;;;;;;10.10;9.17;;;18.40;87.90;;;;;;4981136;28;20458;-81
2022/04/23 11:48:51;;;;;;;8.80;7.90;;;18.70;86.70;;;;;;4980417;28;20566;-82
2022/04/23 11:51:19;;;;;;;11.30;8.87;;;18.60;85.50;;;;;;4980902;28;20481;-82
2022/04/23 11:53:53;;;;;;;10.17;8.80;;;18.60;85.30;;;;;;4980341;28;20514;-82
2022/04/23 11:56:32;;;;;;;9.37;8.57;;;18.70;84.90;;;;;;4980506;28;20831;-81
2022/04/23 11:59:00;;;;;;;9.30;8.50;;;18.40;84.10;;;;;;4980941;28;20479;-85
2022/04/23 12:01:27;;;;;;;9.87;9.07;;;18.30;85.30;;;;;;4980551;28;20475;-83
2022/04/23 12:03:55;;;;;;;9.43;8.63;;;18.40;86.50;;;;;;4981096;28;20462;-84
2022/04/23 12:06:23;;;;;;;9.23;8.30;;;18.50;87.40;;;;;;4980192;28;20846;-84
2022/04/23 12:08:51;;;;;;;10.07;9.07;;;18.70;86.00;;;;;;4980111;28;20949;-81
2022/04/23 12:11:22;;;;;;;10.17;9.17;;;19.00;86.20;;;;;;4979570;28;20471;-80
2022/04/23 12:13:49;;;;;;;9.83;8.93;;;19.20;83.70;;;;;;4980546;28;20455;-81
2022/04/23 12:16:29;;;;;;;7.83;7.07;;;19.40;84.40;;;;;;4980355;28;20480;-81
2022/04/23 12:18:59;;;;;;;8.30;7.50;;;19.60;84.10;;;;;;4980684;28;20451;-81
2022/04/23 12:21:26;;;;;;;13.00;11.80;;;19.60;82.80;;;;;;4979004;28;20476;-81
2022/04/23 12:23:54;;;;;;;9.47;8.67;;;19.60;81.60;;;;;;4978772;28;20467;-80
2022/04/23 12:26:25;;;;;;;9.13;8.33;;;19.50;82.10;;;;;;4979628;28;20495;-85
2022/04/23 12:43:30;;;;;;;7.80;7.20;;;20.50;78.20;;;;;;4980141;28;20560;-80
2022/04/23 12:46:08;;;;;;;8.50;7.70;;;20.70;78.60;;;;;;4961424;29;20671;-80
2022/04/23 12:48:56;;;;;;;9.97;8.40;;;20.60;76.70;;;;;;4977717;28;20458;-80
2022/04/23 12:51:23;;;;;;;9.67;8.77;;;20.40;77.50;;;;;;4980240;28;20495;-79
2022/04/23 12:53:50;;;;;;;8.70;8.00;;;20.30;77.20;;;;;;4979958;28;20478;-80
2022/04/23 12:56:19;;;;;;;8.80;8.00;;;20.30;78.60;;;;;;4972933;28;20450;-79
2022/04/23 12:58:45;;;;;;;7.93;7.23;;;20.50;78.80;;;;;;4972576;28;20545;-80
2022/04/23 13:01:12;;;;;;;8.70;8.00;;;20.80;78.80;;;;;;4969514;28;20520;-80
2022/04/23 13:03:44;;;;;;;8.63;7.93;;;21.10;76.60;;;;;;4967732;28;20450;-80
2022/04/23 13:08:58;;;;;;;8.50;7.67;;;21.30;75.60;;;;;;4987824;28;20465;-79
2022/04/23 13:11:27;;;;;;;9.20;8.40;;;21.30;75.40;;;;;;4986945;28;20477;-79
2022/04/23 13:13:55;;;;;;;7.67;7.17;;;21.30;74.90;;;;;;4984097;28;20458;-79
2022/04/23 13:16:24;;;;;;;8.23;7.43;;;21.20;74.50;;;;;;4985990;28;20452;-79
2022/04/23 13:18:52;;;;;;;8.30;7.60;;;21.00;74.40;;;;;;4988174;28;20452;-79
2022/04/23 13:21:19;;;;;;;8.23;7.53;;;20.80;75.30;;;;;;4987333;28;20491;-79
2022/04/23 13:23:45;;;;;;;8.10;7.50;;;20.60;75.70;;;;;;4987375;28;20472;-79
2022/04/23 13:26:13;;;;;;;9.40;8.60;;;20.60;75.70;;;;;;4982085;28;20962;-79
2022/04/23 13:28:41;;;;;;;7.53;6.83;;;20.20;75.30;;;;;;4978924;28;20484;-80
2022/04/23 13:31:09;;;;;;;8.50;7.80;;;20.10;77.50;;;;;;4972723;28;20495;-79
2022/04/23 13:33:36;;;;;;;8.13;7.33;;;20.10;77.70;;;;;;4984293;28;20463;-79
2022/04/23 13:36:03;;;;;;;7.90;7.13;;;20.10;77.10;;;;;;4998209;28;20447;-80
2022/04/23 13:38:30;;;;;;;8.00;7.40;;;20.30;78.20;;;;;;4998552;28;20456;-80
2022/04/23 13:40:57;;;;;;;9.30;8.10;;;20.50;77.10;;;;;;4994334;28;20471;-80
2022/04/23 13:43:25;;;;;;;8.67;8.00;;;20.60;75.80;;;;;;4988166;28;20448;-80
2022/04/23 13:45:53;;;;;;;8.13;7.43;;;20.70;75.20;;;;;;4983580;28;20452;-80
2022/04/23 13:48:20;;;;;;;8.80;8.00;;;20.60;75.70;;;;;;4986266;28;20451;-80
2022/04/23 13:50:47;;;;;;;8.50;7.70;;;20.30;75.30;;;;;;4987037;28;20491;-80
2022/04/23 13:53:13;;;;;;;9.10;8.27;;;20.00;76.90;;;;;;4982026;28;20981;-80
2022/04/23 13:55:40;;;;;;;9.13;8.23;;;19.80;77.60;;;;;;4969793;28;20973;-80
2022/04/23 13:58:07;;;;;;;8.90;8.10;;;19.70;77.20;;;;;;4991491;28;20459;-81
2022/04/23 14:00:33;;;;;;;8.50;7.80;;;19.60;77.50;;;;;;4983222;28;20798;-80
2022/04/23 14:11:15;;;;;;;8.80;8.00;;;19.50;78.80;;;;;;4977352;28;20509;-81
2022/04/23 14:13:42;;;;;;;9.73;8.93;;;19.20;78.20;;;;;;4978809;28;20459;-81
2022/04/23 14:16:10;;;;;;;10.40;9.50;;;19.10;79.20;;;;;;4979106;28;20460;-84
2022/04/23 14:18:38;;;;;;;9.80;8.90;;;18.90;79.60;;;;;;4980315;28;20451;-84
2022/04/23 14:21:13;;;;;;;9.33;8.53;;;18.80;79.80;;;;;;4979419;28;20914;-85
2022/04/23 14:23:40;;;;;;;10.20;9.20;;;18.70;79.80;;;;;;4979516;28;20542;-84
2022/04/23 14:26:06;;;;;;;10.80;10.00;;;18.60;80.20;;;;;;4978897;28;20953;-83
2022/04/23 14:28:35;;;;;;;10.43;9.43;;;18.40;81.50;;;;;;4978952;28;20506;-84
2022/04/23 14:31:02;;;;;;;9.73;8.93;;;18.30;81.60;;;;;;4978358;28;20578;-84
2022/04/23 14:33:29;;;;;;;10.17;9.20;;;18.20;82.20;;;;;;4977435;28;20462;-83
2022/04/23 14:35:57;;;;;;;9.50;8.70;;;18.00;82.10;;;;;;4977656;28;20491;-83
2022/04/23 14:38:24;;;;;;;10.50;9.50;;;17.80;83.20;;;;;;4979524;28;20872;-85
2022/04/23 14:40:51;;;;;;;8.90;8.13;;;17.60;83.30;;;;;;4979720;28;20483;-85
2022/04/23 14:43:18;;;;;;;10.20;9.30;;;17.60;84.50;;;;;;4982540;28;20442;-85
2022/04/23 14:45:45;;;;;;;11.70;10.80;;;17.50;84.40;;;;;;4971342;28;20451;-85
2022/04/23 14:48:11;;;;;;;11.03;10.03;;;17.40;84.80;;;;;;4972863;28;20455;-84
2022/04/23 14:53:24;;;;;;;10.00;9.17;;;17.50;85.90;;;;;;4978755;28;20406;-83
2022/04/23 14:55:51;;;;;;;10.57;9.50;;;17.60;85.60;;;;;;4977575;28;20496;-85
2022/04/23 14:58:26;;;;;;;12.30;11.10;;;17.50;85.70;;;;;;4968533;28;20797;-84
2022/04/23 15:00:56;;;;;;;15.33;13.63;;;17.50;84.90;;;;;;4979601;28;20551;-84
2022/04/23 15:03:23;;;;;;;11.77;10.67;;;17.50;85.00;;;;;;4986389;28;20972;-83
2022/04/23 15:05:49;;;;;;;20.00;18.10;;;17.50;86.00;;;;;;4982498;28;21007;-85
2022/04/23 15:08:17;;;;;;;12.83;11.53;;;17.40;85.30;;;;;;4984878;28;20469;-85
2022/04/23 15:10:47;;;;;;;10.47;9.57;;;17.30;85.70;;;;;;4985826;28;20525;-85
2022/04/23 15:13:14;;;;;;;11.73;10.73;;;17.30;86.30;;;;;;4984822;28;20454;-85
2022/04/23 15:15:41;;;;;;;12.33;11.17;;;17.40;86.90;;;;;;4984012;28;20553;-84
2022/04/23 15:18:08;;;;;;;12.93;11.73;;;17.40;86.50;;;;;;4981766;28;20836;-84
2022/04/23 15:20:35;;;;;;;10.93;9.80;;;17.50;86.20;;;;;;4982404;28;20458;-84
2022/04/23 15:23:02;;;;;;;10.73;9.73;;;17.50;86.20;;;;;;4982487;28;20442;-82
2022/04/23 15:28:35;;;;;;;11.70;10.70;;;17.50;85.80;;;;;;4963526;29;20450;-82
2022/04/23 15:31:06;;;;;;;12.33;11.10;;;17.40;86.80;;;;;;4975256;28;20513;-81
2022/04/23 15:33:33;;;;;;;10.33;9.43;;;17.40;87.10;;;;;;4996596;28;20486;-82
2022/04/23 15:36:00;;;;;;;11.83;10.67;;;17.40;87.30;;;;;;4995926;28;20458;-84
2022/04/23 15:38:27;;;;;;;12.20;11.00;;;17.50;86.40;;;;;;4991397;28;20470;-84
2022/04/23 15:40:54;;;;;;;10.60;9.70;;;17.50;86.40;;;;;;4990896;28;20477;-82
2022/04/23 15:43:22;;;;;;;12.63;11.63;;;17.50;86.70;;;;;;4991835;28;20453;-83
2022/04/23 15:45:49;;;;;;;11.33;10.23;;;17.50;86.90;;;;;;4993287;28;20464;-83
2022/04/23 15:48:16;;;;;;;11.70;10.60;;;17.60;87.00;;;;;;4992241;28;20819;-83
2022/04/23 15:50:46;;;;;;;11.90;10.67;;;17.70;86.00;;;;;;4991010;28;20562;-83
2022/04/23 15:53:13;;;;;;;11.27;10.17;;;17.90;86.40;;;;;;4992013;28;20463;-83
2022/04/23 15:55:40;;;;;;;11.40;10.13;;;17.90;85.30;;;;;;4992128;28;20930;-84
2022/04/23 15:58:07;;;;;;;13.67;12.00;;;17.90;84.60;;;;;;4989376;28;20460;-83
2022/04/23 16:00:35;;;;;;;12.57;11.53;;;18.20;84.70;;;;;;4987445;28;20982;-84
2022/04/23 16:05:47;;;;;;;13.50;12.10;;;18.50;84.10;;;;;;4980784;28;20519;-83
2022/04/23 16:08:13;;;;;;;13.40;12.10;;;18.70;83.10;;;;;;4980507;28;20452;-83
2022/04/23 16:10:40;;;;;;;12.10;11.07;;;18.90;83.20;;;;;;4978938;28;20491;-84
2022/04/23 16:13:08;;;;;;;11.87;10.70;;;19.00;82.10;;;;;;4979690;28;20462;-83
2022/04/23 16:18:57;;;;;;;13.03;11.80;;;18.90;81.20;;;;;;4952034;29;20463;-82
2022/04/23 16:21:24;;;;;;;13.27;12.07;;;18.70;82.20;;;;;;4975749;28;20472;-83
2022/04/23 16:23:51;;;;;;;13.00;11.70;;;18.60;82.50;;;;;;4980417;28;20518;-82
2022/04/23 16:26:23;;;;;;;14.50;13.17;;;18.60;82.90;;;;;;4982607;28;20480;-82
2022/04/23 16:28:50;;;;;;;13.17;11.97;;;18.40;82.50;;;;;;4982181;28;20462;-82
2022/04/23 16:31:17;;;;;;;14.30;12.90;;;18.30;83.00;;;;;;4982292;28;20530;-83
2022/04/23 16:33:43;;;;;;;14.67;13.20;;;18.10;83.70;;;;;;4982123;28;20479;-83
2022/04/23 16:47:22;;;;;;;13.77;12.47;;;17.50;85.60;;;;;;4982070;28;20441;-83
2022/04/23 16:49:49;;;;;;;15.47;13.10;;;17.40;86.60;;;;;;4990964;28;20450;-83
2022/04/23 16:52:18;;;;;;;15.10;13.50;;;17.40;87.30;;;;;;4988146;28;21023;-83
2022/04/23 16:54:44;;;;;;;14.07;12.70;;;17.30;87.10;;;;;;4991234;28;20449;-81
2022/04/23 16:57:11;;;;;;;15.77;13.10;;;17.20;87.60;;;;;;4987380;28;20450;-82
2022/04/23 16:59:38;;;;;;;13.53;12.13;;;17.20;88.00;;;;;;4986835;28;20450;-81
2022/04/23 17:02:05;;;;;;;13.40;12.20;;;17.20;87.60;;;;;;4982408;28;20917;-83
2022/04/23 17:04:32;;;;;;;14.90;13.50;;;17.10;88.10;;;;;;4986670;28;20438;-81
2022/04/23 17:06:58;;;;;;;13.83;12.60;;;17.00;87.90;;;;;;4998423;28;20574;-82
2022/04/23 17:09:27;;;;;;;16.50;14.03;;;16.90;88.40;;;;;;4996693;28;20456;-82
2022/04/23 17:11:54;;;;;;;13.77;12.40;;;16.80;88.70;;;;;;4989603;28;20490;-83
2022/04/23 17:14:21;;;;;;;14.47;12.93;;;16.80;89.50;;;;;;4993085;28;20458;-83
2022/04/23 17:16:50;;;;;;;16.40;14.40;;;16.80;89.80;;;;;;4999309;28;20549;-83
2022/04/23 17:19:19;;;;;;;13.83;12.40;;;16.70;89.80;;;;;;4996890;28;20450;-83
2022/04/23 17:21:46;;;;;;;15.23;13.83;;;16.70;90.10;;;;;;4989119;28;20558;-83
2022/04/23 17:24:16;;;;;;;18.17;13.90;;;16.60;90.20;;;;;;4995281;28;20440;-83
2022/04/23 17:26:45;;;;;;;17.87;13.93;;;16.50;90.40;;;;;;4992951;28;20460;-83
2022/04/23 17:29:14;;;;;;;14.33;12.93;;;16.50;90.50;;;;;;4998419;28;20524;-83
2022/04/23 17:36:53;;;;;;;14.40;13.03;;;16.40;90.80;;;;;;3956838;22;20521;-85
2022/04/23 18:15:20;;;;;;;15.90;13.90;;;15.70;92.30;;;;;;5046951;22;20502;-85
2022/04/23 18:17:47;;;;;;;16.37;14.67;;;15.70;92.50;;;;;;5027150;28;20883;-84
2022/04/23 18:20:13;;;;;;;16.57;14.87;;;15.60;92.70;;;;;;5034722;28;20484;-85
2022/04/23 18:22:41;;;;;;;15.27;13.87;;;15.60;92.70;;;;;;5035423;28;20821;-84
2022/04/23 18:25:14;;;;;;;16.43;14.83;;;15.40;92.80;;;;;;5034177;28;20472;-85
2022/04/23 18:27:41;;;;;;;16.70;14.53;;;15.40;93.00;;;;;;5035732;28;20532;-85
2022/04/23 18:30:14;;;;;;;14.13;12.83;;;15.30;93.20;;;;;;5025414;28;20452;-85
2022/04/23 18:32:41;;;;;;;15.00;13.50;;;15.30;93.40;;;;;;5016217;28;20535;-85
2022/04/23 18:35:25;;;;;;;;;;;;;;;;;;;;;
2022/04/23 18:38:01;;;;;;;16.00;14.50;;;15.20;93.80;;;;;;5017202;28;20447;-85
2022/04/23 18:40:28;;;;;;;16.50;14.80;;;15.10;94.00;;;;;;5018831;28;20453;-85
2022/04/23 18:43:09;;;;;;;16.23;14.53;;;15.00;94.00;;;;;;5017446;28;20446;-86
2022/04/23 19:06:29;;;;;;;16.70;14.30;;;13.90;96.90;;;;;;4797004;29;20471;-85
2022/04/23 19:13:02;;;;;;;16.00;14.30;;;13.20;98.70;;;;;;4772404;29;20513;-85
2022/04/23 19:15:28;;;;;;;16.77;14.50;;;13.20;99.40;;;;;;4850513;28;20458;-86
2022/04/23 19:17:55;;;;;;;16.50;14.20;;;13.20;99.50;;;;;;5013946;28;20455;-85
2022/04/23 19:20:25;;;;;;;18.63;16.07;;;13.10;99.90;;;;;;5037059;28;20581;-85
2022/04/23 19:29:03;;;;;;;18.00;16.23;;;12.90;99.90;;;;;;5021789;28;20425;-86
2022/04/23 19:38:39;;;;;;;14.77;13.27;;;12.90;99.90;;;;;;4953884;28;20500;-85
2022/04/23 19:44:44;;;;;;;17.40;14.53;;;12.90;99.90;;;;;;4860627;29;20473;-85
2022/04/23 19:47:43;;;;;;;16.40;13.07;;;12.80;99.90;;;;;;4911874;29;20457;-86
2022/04/23 19:50:35;;;;;;;14.57;12.60;;;12.80;99.90;;;;;;4917007;29;20467;-86
2022/04/23 19:56:30;;;;;;;13.20;11.77;;;12.80;99.90;;;;;;4939720;29;20450;-87
2022/04/23 19:59:01;;;;;;;12.73;11.63;;;12.80;99.90;;;;;;4939280;29;20456;-84
2022/04/23 20:01:35;;;;;;;12.87;11.70;;;12.70;99.90;;;;;;4979428;28;20507;-85
2022/04/23 20:07:06;;;;;;;13.63;11.67;;;12.70;99.90;;;;;;5019860;28;20449;-86
2022/04/23 20:10:00;;;;;;;14.67;13.23;;;12.80;99.90;;;;;;5031279;28;20949;-88
2022/04/23 20:19:23;;;;;;;14.43;12.80;;;12.60;99.90;;;;;;5058489;28;20432;-88
2022/04/23 20:21:51;;;;;;;12.67;10.20;;;12.50;99.90;;;;;;5050936;28;20451;-89
2022/04/23 20:24:19;;;;;;;14.40;11.80;;;12.50;99.90;;;;;;5050643;28;20461;-88
2022/04/23 20:26:47;;;;;;;14.03;12.47;;;12.50;99.90;;;;;;5047576;28;20542;-88
2022/04/23 20:29:22;;;;;;;12.10;10.90;;;12.60;99.90;;;;;;5051707;28;20435;-88
2022/04/23 20:32:03;;;;;;;12.63;11.57;;;12.60;99.90;;;;;;5050824;28;20488;-88
2022/04/23 20:38:05;;;;;;;12.70;10.97;;;12.60;99.90;;;;;;5048383;28;20500;-88
2022/04/23 20:40:05;;;;;;;12.13;10.90;;;12.60;99.90;;;;;;5037589;28;20499;-88
2022/04/23 20:42:33;;;;;;;15.13;11.60;;;12.50;99.90;;;;;;5050081;28;20446;-88
2022/04/23 20:45:02;;;;;;;10.37;9.47;;;12.50;99.90;;;;;;5050213;28;20467;-88
2022/04/23 20:47:29;;;;;;;12.63;11.33;;;12.40;99.90;;;;;;5049749;28;20464;-88
2022/04/23 20:49:57;;;;;;;11.00;9.90;;;12.40;99.90;;;;;;5049692;28;20457;-89
2022/04/23 20:55:10;;;;;;;11.20;10.00;;;12.40;99.90;;;;;;5029325;28;20492;-87
2022/04/23 20:57:39;;;;;;;12.03;10.67;;;12.40;99.90;;;;;;5030837;28;20845;-86
2022/04/23 21:00:09;;;;;;;12.70;11.47;;;12.40;99.90;;;;;;5031191;28;20515;-88
2022/04/23 21:02:40;;;;;;;10.27;9.37;;;12.40;99.90;;;;;;5046906;28;20525;-88
2022/04/23 21:05:07;;;;;;;11.97;10.80;;;12.40;99.90;;;;;;5038182;28;20507;-87
2022/04/23 21:07:37;;;;;;;12.70;11.50;;;12.40;99.90;;;;;;5039646;28;20468;-88
2022/04/23 21:10:11;;;;;;;11.97;9.80;;;12.40;99.90;;;;;;5028336;28;20491;-88
2022/04/23 21:12:44;;;;;;;12.60;10.40;;;12.40;99.90;;;;;;5039245;28;20476;-87
2022/04/23 21:15:21;;;;;;;11.17;10.07;;;12.40;99.90;;;;;;5038382;28;20509;-87
2022/04/23 21:18:07;;;;;;;11.37;10.03;;;12.40;99.90;;;;;;5041033;28;20459;-87
2022/04/23 21:21:10;;;;;;;11.17;10.10;;;12.40;99.90;;;;;;5022151;28;20486;-88
2022/04/23 21:24:01;;;;;;;10.97;10.07;;;12.30;99.90;;;;;;5026563;28;20484;-87
2022/04/23 21:26:27;;;;;;;11.93;9.80;;;12.30;99.90;;;;;;5038525;28;20464;-87
2022/04/23 21:28:54;;;;;;;9.77;8.87;;;12.30;99.90;;;;;;5046321;28;20475;-87
2022/04/23 21:31:21;;;;;;;10.53;9.47;;;12.20;99.90;;;;;;5044092;28;20486;-89
2022/04/23 21:33:48;;;;;;;11.17;9.97;;;12.20;99.90;;;;;;5027928;28;20521;-87
2022/04/23 21:36:23;;;;;;;10.87;9.77;;;12.20;99.90;;;;;;5029338;28;20477;-87
2022/04/23 21:45:25;;;;;;;11.80;10.47;;;12.20;99.90;;;;;;5044197;28;20467;-88
2022/04/23 21:48:00;;;;;;;12.17;10.60;;;12.10;99.90;;;;;;5043490;28;20456;-88
2022/04/23 21:51:03;;;;;;;11.93;10.30;;;12.10;99.90;;;;;;5047163;28;20471;-87
2022/04/23 21:53:56;;;;;;;12.03;10.43;;;12.10;99.90;;;;;;5021044;28;20480;-87
2022/04/23 21:56:48;;;;;;;11.33;10.33;;;12.00;99.90;;;;;;5041782;28;20465;-87
2022/04/23 21:59:25;;;;;;;10.87;9.77;;;12.00;99.90;;;;;;5024438;28;20477;-88
2022/04/23 22:01:56;;;;;;;13.43;11.23;;;12.00;99.90;;;;;;5024109;28;20477;-86
2022/04/23 22:04:28;;;;;;;12.67;10.93;;;12.10;99.90;;;;;;5028383;28;20481;-87
2022/04/23 22:07:18;;;;;;;13.07;11.27;;;12.00;99.90;;;;;;5044841;28;20457;-87
2022/04/23 22:09:50;;;;;;;12.73;11.40;;;11.90;99.90;;;;;;5043193;28;20457;-89
2022/04/23 22:12:25;;;;;;;12.53;11.23;;;11.90;99.90;;;;;;5046360;28;20583;-87
2022/04/23 22:15:00;;;;;;;14.47;12.00;;;11.90;99.90;;;;;;5044124;28;20492;-87
2022/04/23 22:17:27;;;;;;;14.80;12.63;;;11.90;99.90;;;;;;5027212;28;21077;-88
2022/04/23 22:20:02;;;;;;;13.33;12.03;;;11.90;99.90;;;;;;5028482;28;20456;-87
2022/04/23 22:22:34;;;;;;;12.53;11.17;;;11.90;99.90;;;;;;5039025;28;20448;-86
2022/04/23 22:25:11;;;;;;;15.17;12.70;;;11.90;99.90;;;;;;5045457;28;20480;-87
2022/04/23 22:28:11;;;;;;;12.40;11.20;;;11.80;99.90;;;;;;5037639;28;20466;-87
2022/04/23 22:30:50;;;;;;;13.80;12.40;;;11.80;99.90;;;;;;5032240;28;20465;-86
2022/04/23 22:33:36;;;;;;;12.70;11.50;;;11.80;99.90;;;;;;5023230;28;20489;-88